createdAt,value
2019-03-31T00:01:40.248Z,100153.20
2019-03-31T00:03:46.909Z,100147.08
2019-03-31T00:05:53.572Z,100143.55
2019-03-31T00:08:00.263Z,100141.30
2019-03-31T00:10:08.834Z,100136.06
2019-03-31T00:12:15.514Z,100136.06
2019-03-31T00:14:22.210Z,100137.33
2019-03-31T00:16:28.891Z,100131.62
2019-03-31T00:18:35.596Z,100129.41
2019-03-31T00:20:42.455Z,100126.80
2019-03-31T00:22:49.122Z,100123.81
2019-03-31T00:24:55.787Z,100121.30
2019-03-31T00:27:02.523Z,100113.50
2019-03-31T00:29:09.203Z,100120.62
2019-03-31T00:31:22.126Z,100118.47
2019-03-31T00:33:24.343Z,100111.87
2019-03-31T00:35:31.086Z,100117.16
2019-03-31T00:37:37.757Z,100111.03
2019-03-31T00:39:44.453Z,100106.26
2019-03-31T00:41:51.127Z,100109.40
2019-03-31T00:43:57.784Z,100106.41
2019-03-31T00:46:04.486Z,100102.48
2019-03-31T00:48:11.164Z,100108.19
2019-03-31T00:50:17.830Z,100107.31
2019-03-31T00:52:24.526Z,100099.92
2019-03-31T00:54:31.194Z,100099.02
2019-03-31T00:56:37.927Z,100095.88
2019-03-31T00:58:44.622Z,100097.19
2019-03-31T01:00:53.067Z,100101.17
2019-03-31T01:03:01.346Z,100096.30
2019-03-31T01:05:08.130Z,100095.45
2019-03-31T01:07:15.266Z,100093.27
2019-03-31T01:09:26.721Z,100090.69
2019-03-31T01:11:33.485Z,100090.22
2019-03-31T01:13:40.515Z,100086.20
2019-03-31T01:15:47.570Z,100080.48
2019-03-31T01:17:55.063Z,100086.09
2019-03-31T01:20:01.796Z,100069.44
2019-03-31T01:22:09.060Z,100076.09
2019-03-31T01:24:15.826Z,100077.91
2019-03-31T01:26:23.363Z,100076.19
2019-03-31T01:28:30.028Z,100072.25
2019-03-31T01:30:36.912Z,100074.50
2019-03-31T01:32:43.649Z,100075.86
2019-03-31T01:34:50.453Z,100076.39
2019-03-31T01:36:57.213Z,100071.95
2019-03-31T01:39:05.757Z,100070.63
2019-03-31T01:41:14.090Z,100067.58
2019-03-31T01:43:20.986Z,100067.11
2019-03-31T01:45:28.225Z,100062.67
2019-03-31T01:47:34.895Z,100060.33
2019-03-31T01:49:41.648Z,100053.19
2019-03-31T01:51:49.198Z,100053.47
2019-03-31T01:53:55.939Z,100052.58
2019-03-31T01:56:02.629Z,100051.22
2019-03-31T01:58:09.290Z,100048.50
2019-03-31T02:00:27.596Z,100051.06
2019-03-31T02:02:34.462Z,100045.77
2019-03-31T02:04:41.197Z,100045.72
2019-03-31T02:06:48.948Z,100041.80
2019-03-31T02:08:55.634Z,100033.89
2019-03-31T02:11:02.999Z,100037.82
2019-03-31T02:13:10.870Z,100038.66
2019-03-31T02:15:17.645Z,100041.70
2019-03-31T02:17:24.309Z,100035.47
2019-03-31T02:19:30.985Z,100032.32
2019-03-31T02:21:37.671Z,100037.92
2019-03-31T02:23:44.435Z,100032.17
2019-03-31T02:25:51.100Z,100032.17
2019-03-31T02:27:57.809Z,100038.67
2019-03-31T02:30:06.260Z,100031.60
2019-03-31T02:32:23.383Z,100034.16
2019-03-31T02:34:22.475Z,100029.76
2019-03-31T02:36:29.141Z,100034.05
2019-03-31T02:38:35.947Z,100034.89
2019-03-31T02:40:42.813Z,100035.73
2019-03-31T02:42:49.488Z,100035.73
2019-03-31T02:44:56.108Z,100026.47
2019-03-31T02:47:02.859Z,100025.46
2019-03-31T02:49:09.520Z,100020.91
2019-03-31T02:51:16.191Z,100028.39
2019-03-31T02:53:22.960Z,100021.44
2019-03-31T02:55:29.660Z,100024.41
2019-03-31T02:57:36.794Z,100019.13
2019-03-31T02:59:44.413Z,100016.89
2019-03-31T03:01:53.367Z,100017.30
2019-03-31T03:04:02.136Z,100017.25
2019-03-31T03:06:12.615Z,100008.52
2019-03-31T03:08:20.979Z,100013.70
2019-03-31T03:10:30.457Z,100009.34
2019-03-31T03:12:40.115Z,100004.89
2019-03-31T03:14:50.495Z,100006.62
2019-03-31T03:16:57.148Z,100011.80
2019-03-31T03:19:04.102Z,100011.33
2019-03-31T03:21:10.865Z,100003.06
2019-03-31T03:23:17.675Z,100004.78
2019-03-31T03:25:24.660Z,100002.59
2019-03-31T03:27:31.514Z,100008.66
2019-03-31T03:29:38.307Z,100003.37
2019-03-31T03:31:45.080Z,100005.05
2019-03-31T03:33:51.860Z,99998.51
2019-03-31T03:35:58.756Z,99998.51
2019-03-31T03:38:05.531Z,100002.91
2019-03-31T03:40:13.509Z,100004.31
2019-03-31T03:42:20.190Z,100004.21
2019-03-31T03:44:26.881Z,100008.61
2019-03-31T03:46:33.923Z,100004.62
2019-03-31T03:48:40.658Z,100001.12
2019-03-31T03:50:47.426Z,100001.05
2019-03-31T03:52:54.186Z,100005.77
2019-03-31T03:55:00.922Z,100001.84
2019-03-31T03:57:07.726Z,100000.11
2019-03-31T03:59:14.464Z,100001.05
2019-03-31T04:01:21.352Z,100001.42
2019-03-31T04:03:30.486Z,99995.30
2019-03-31T04:05:36.599Z,99997.86
2019-03-31T04:07:43.376Z,99997.81
2019-03-31T04:09:50.090Z,100001.73
2019-03-31T04:11:56.760Z,100004.77
2019-03-31T04:14:03.426Z,100000.84
2019-03-31T04:16:10.310Z,99996.51
2019-03-31T04:18:16.974Z,100001.73
2019-03-31T04:20:23.622Z,99993.89
2019-03-31T04:22:30.310Z,99994.05
2019-03-31T04:24:37.052Z,99999.45
2019-03-31T04:26:43.716Z,99993.95
2019-03-31T04:28:50.390Z,99995.38
2019-03-31T04:30:57.170Z,99994.64
2019-03-31T04:33:03.908Z,100000.39
2019-03-31T04:35:10.606Z,99997.05
2019-03-31T04:37:17.276Z,100002.81
2019-03-31T04:39:24.007Z,99998.62
2019-03-31T04:41:30.692Z,99992.17
2019-03-31T04:43:37.436Z,100001.50
2019-03-31T04:45:44.095Z,99998.14
2019-03-31T04:47:50.788Z,100001.53
2019-03-31T04:49:57.447Z,100002.50
2019-03-31T04:52:04.113Z,100002.84
2019-03-31T04:54:10.816Z,100003.03
2019-03-31T04:56:17.545Z,99997.14
2019-03-31T04:58:24.203Z,99999.02
2019-03-31T05:00:30.890Z,99998.45
2019-03-31T05:02:37.715Z,99994.79
2019-03-31T05:04:44.494Z,99993.63
2019-03-31T05:06:51.181Z,99993.92
2019-03-31T05:08:57.909Z,99995.13
2019-03-31T05:11:05.541Z,99996.43
2019-03-31T05:13:12.230Z,99996.45
2019-03-31T05:15:18.971Z,100001.42
2019-03-31T05:17:25.652Z,99991.25
2019-03-31T05:19:32.400Z,99983.86
2019-03-31T05:21:39.133Z,99971.60
2019-03-31T05:23:45.803Z,99975.84
2019-03-31T05:25:52.492Z,99972.88
2019-03-31T05:27:59.330Z,99972.63
2019-03-31T05:30:07.613Z,99971.84
2019-03-31T05:32:14.406Z,99967.41
2019-03-31T05:34:21.147Z,99967.39
2019-03-31T05:36:27.815Z,99967.56
2019-03-31T05:38:34.507Z,99962.87
2019-03-31T05:40:42.174Z,99958.61
2019-03-31T05:42:48.844Z,99953.45
2019-03-31T05:44:55.607Z,99957.91
2019-03-31T05:47:02.273Z,99949.97
2019-03-31T05:49:08.945Z,99943.33
2019-03-31T05:51:15.642Z,99940.59
2019-03-31T05:53:22.387Z,99939.05
2019-03-31T05:55:29.058Z,99933.61
2019-03-31T05:57:35.792Z,99928.52
2019-03-31T05:59:42.453Z,99940.94
2019-03-31T06:01:49.196Z,99936.69
2019-03-31T06:03:55.897Z,99938.92
2019-03-31T06:06:02.624Z,99935.36
2019-03-31T06:08:09.294Z,99943.61
2019-03-31T06:10:16.065Z,99949.66
2019-03-31T06:12:22.740Z,99958.33
2019-03-31T06:14:29.490Z,99958.91
2019-03-31T06:16:36.186Z,99968.48
2019-03-31T06:18:42.934Z,99978.91
2019-03-31T06:20:49.538Z,99961.01
2019-03-31T06:22:56.235Z,99970.57
2019-03-31T06:25:02.908Z,99976.79
2019-03-31T06:27:09.572Z,99967.95
2019-03-31T06:29:16.364Z,99977.41
2019-03-31T06:31:23.104Z,99968.86
2019-03-31T06:33:29.774Z,99974.03
2019-03-31T06:35:36.474Z,99969.02
2019-03-31T06:37:43.158Z,99966.53
2019-03-31T06:39:50.926Z,99972.73
2019-03-31T06:41:57.679Z,99967.59
2019-03-31T06:44:04.442Z,99964.31
2019-03-31T06:46:11.125Z,99970.81
2019-03-31T06:48:17.840Z,99968.78
2019-03-31T06:50:24.508Z,99967.94
2019-03-31T06:52:31.180Z,99974.19
2019-03-31T06:54:37.879Z,99972.83
2019-03-31T06:56:47.097Z,99975.42
2019-03-31T06:58:54.935Z,99973.58
2019-03-31T07:01:01.926Z,99976.52
2019-03-31T07:03:08.597Z,99977.05
2019-03-31T07:05:15.264Z,99980.82
2019-03-31T07:07:23.807Z,99979.14
2019-03-31T07:09:30.319Z,99976.73
2019-03-31T07:11:36.991Z,99975.17
2019-03-31T07:13:43.689Z,99971.70
2019-03-31T07:15:50.358Z,99973.19
2019-03-31T07:17:57.020Z,99975.43
2019-03-31T07:20:05.140Z,99974.20
2019-03-31T07:22:11.809Z,99975.91
2019-03-31T07:24:18.598Z,99973.81
2019-03-31T07:26:25.286Z,99973.17
2019-03-31T07:28:31.958Z,99976.45
2019-03-31T07:30:38.642Z,99973.46
2019-03-31T07:32:45.336Z,99973.20
2019-03-31T07:34:52.012Z,99975.94
2019-03-31T07:36:58.685Z,99975.19
2019-03-31T07:39:07.317Z,99976.98
2019-03-31T07:41:14.255Z,99976.28
2019-03-31T07:43:22.166Z,99974.20
2019-03-31T07:45:28.856Z,99975.48
2019-03-31T07:47:35.609Z,99973.66
2019-03-31T07:49:42.380Z,99978.22
2019-03-31T07:51:49.072Z,99977.70
2019-03-31T07:53:56.745Z,99981.13
2019-03-31T07:56:03.549Z,99979.42
2019-03-31T07:58:10.352Z,99980.31
2019-03-31T08:00:20.614Z,99982.73
2019-03-31T08:02:27.283Z,99983.03
2019-03-31T08:04:34.043Z,99982.08
2019-03-31T08:06:40.714Z,99978.08
2019-03-31T08:08:47.446Z,99984.98
2019-03-31T08:10:54.220Z,99981.77
2019-03-31T08:13:00.969Z,99977.45
2019-03-31T08:15:11.769Z,99981.02
2019-03-31T08:17:18.526Z,99978.70
2019-03-31T08:19:25.233Z,99977.45
2019-03-31T08:21:31.901Z,99974.42
2019-03-31T08:23:38.640Z,99980.34
2019-03-31T08:25:45.304Z,99979.58
2019-03-31T08:27:51.970Z,99972.50
2019-03-31T08:30:00.787Z,99980.38
2019-03-31T08:32:07.123Z,99976.73
2019-03-31T08:34:13.866Z,99975.48
2019-03-31T08:36:20.565Z,99967.97
2019-03-31T08:38:27.239Z,99969.05
2019-03-31T08:40:33.912Z,99969.08
2019-03-31T08:42:40.610Z,99966.79
2019-03-31T08:44:47.281Z,99964.40
2019-03-31T08:46:54.016Z,99954.92
2019-03-31T08:49:00.716Z,99961.53
2019-03-31T08:51:07.451Z,99954.41
2019-03-31T08:53:14.126Z,99953.36
2019-03-31T08:55:20.825Z,99950.84
2019-03-31T08:57:27.507Z,99948.67
2019-03-31T08:59:34.174Z,99955.61
2019-03-31T09:01:41.045Z,99953.22
2019-03-31T09:03:47.712Z,99942.89
2019-03-31T09:06:01.475Z,99945.56
2019-03-31T09:08:02.788Z,99947.72
2019-03-31T09:10:11.615Z,99955.28
2019-03-31T09:12:17.410Z,99947.42
2019-03-31T09:14:24.044Z,99949.13
2019-03-31T09:16:30.707Z,99952.05
2019-03-31T09:18:37.380Z,99946.84
2019-03-31T09:20:44.091Z,99941.30
2019-03-31T09:22:50.841Z,99939.08
2019-03-31T09:24:57.592Z,99939.55
2019-03-31T09:27:04.295Z,99939.48
2019-03-31T09:29:11.041Z,99930.41
2019-03-31T09:31:17.702Z,99931.30
2019-03-31T09:33:24.499Z,99936.16
2019-03-31T09:35:31.166Z,99934.77
2019-03-31T09:37:38.002Z,99934.19
2019-03-31T09:39:44.702Z,99934.22
2019-03-31T09:41:51.314Z,99937.53
2019-03-31T09:43:57.983Z,99935.69
2019-03-31T09:46:04.678Z,99935.05
2019-03-31T09:48:11.435Z,99937.61
2019-03-31T09:50:19.503Z,99933.09
2019-03-31T09:52:26.192Z,99937.66
2019-03-31T09:54:32.949Z,99935.02
2019-03-31T09:56:39.614Z,99930.80
2019-03-31T09:58:46.313Z,99932.80
2019-03-31T10:00:54.207Z,99930.26
2019-03-31T10:03:01.203Z,99939.67
2019-03-31T10:05:09.641Z,99939.92
2019-03-31T10:07:16.512Z,99947.55
2019-03-31T10:09:23.189Z,99937.35
2019-03-31T10:11:29.881Z,99934.17
2019-03-31T10:13:36.671Z,99939.37
2019-03-31T10:15:43.342Z,99935.49
2019-03-31T10:17:50.132Z,99939.23
2019-03-31T10:19:56.904Z,99947.66
2019-03-31T10:22:03.586Z,99945.36
2019-03-31T10:24:11.527Z,99944.45
2019-03-31T10:26:31.000Z,99942.70
2019-03-31T10:28:26.767Z,99944.97
2019-03-31T10:30:41.719Z,99942.48
2019-03-31T10:32:48.482Z,99936.45
2019-03-31T10:34:55.161Z,99941.36
2019-03-31T10:37:01.859Z,99939.34
2019-03-31T10:39:09.826Z,99942.47
2019-03-31T10:41:16.493Z,99942.80
2019-03-31T10:43:47.581Z,99936.69
2019-03-31T10:45:56.417Z,99937.38
2019-03-31T10:48:03.153Z,99946.39
2019-03-31T10:50:10.452Z,99939.47
2019-03-31T10:52:17.118Z,99942.65
2019-03-31T10:54:23.789Z,99935.67
2019-03-31T10:56:31.078Z,99944.45
2019-03-31T10:58:38.761Z,99937.05
2019-03-31T11:00:45.418Z,99945.36
2019-03-31T11:02:52.114Z,99948.97
2019-03-31T11:04:58.849Z,99939.71
2019-03-31T11:07:05.599Z,99939.00
2019-03-31T11:09:12.377Z,99939.08
2019-03-31T11:11:19.035Z,99940.70
2019-03-31T11:13:25.821Z,99933.91
2019-03-31T11:15:32.622Z,99936.31
2019-03-31T11:17:39.395Z,99932.67
2019-03-31T11:19:46.055Z,99934.69
2019-03-31T11:21:57.132Z,99934.98
2019-03-31T11:24:03.873Z,99939.87
2019-03-31T11:26:10.539Z,99942.43
2019-03-31T11:28:17.240Z,99939.70
2019-03-31T11:30:25.091Z,99934.09
2019-03-31T11:32:31.764Z,99944.95
2019-03-31T11:34:38.473Z,99940.29
2019-03-31T11:36:45.139Z,99938.13
2019-03-31T11:38:52.809Z,99939.66
2019-03-31T11:40:59.512Z,99941.08
2019-03-31T11:43:06.189Z,99937.45
2019-03-31T11:45:15.121Z,99936.08
2019-03-31T11:47:21.916Z,99934.88
2019-03-31T11:49:28.615Z,99928.53
2019-03-31T11:51:35.346Z,99931.58
2019-03-31T11:53:42.113Z,99931.63
2019-03-31T11:55:48.784Z,99929.59
2019-03-31T11:57:55.453Z,99936.64
2019-03-31T12:00:02.218Z,99929.47
2019-03-31T12:02:09.050Z,99923.41
2019-03-31T12:04:15.717Z,99915.28
2019-03-31T12:06:22.509Z,99924.02
2019-03-31T12:08:29.170Z,99922.56
2019-03-31T12:10:36.214Z,99921.86
2019-03-31T12:12:42.976Z,99926.75
2019-03-31T12:15:00.457Z,99921.16
2019-03-31T12:16:58.156Z,99927.67
2019-03-31T12:19:04.859Z,99925.80
2019-03-31T12:21:11.601Z,99927.35
2019-03-31T12:23:18.339Z,99932.41
2019-03-31T12:25:25.031Z,99934.61
2019-03-31T12:28:20.359Z,99927.02
2019-03-31T12:30:31.039Z,99931.59
2019-03-31T12:36:18.544Z,99932.09
2019-03-31T12:38:25.217Z,99944.12
2019-03-31T12:40:37.199Z,99943.00
2019-03-31T12:42:45.946Z,99941.69
2019-03-31T12:44:52.709Z,99942.89
2019-03-31T12:54:39.609Z,99941.70
2019-03-31T12:56:48.053Z,99944.77
2019-03-31T12:58:54.719Z,99941.83
2019-03-31T13:01:02.965Z,99940.20
2019-03-31T13:03:09.644Z,99955.42
2019-03-31T13:24:36.721Z,99943.60
2019-03-31T13:30:22.172Z,99956.61
2019-03-31T13:32:29.084Z,99957.45
2019-03-31T13:54:19.743Z,99954.91
2019-03-31T13:56:26.838Z,99966.81
2019-03-31T13:58:35.999Z,99966.05
2019-03-31T14:00:43.059Z,99969.56
2019-03-31T14:09:25.814Z,99975.80
2019-03-31T14:11:32.553Z,99975.09
2019-03-31T14:13:39.331Z,99969.55
2019-03-31T14:15:46.098Z,99970.79
2019-03-31T14:17:52.770Z,99967.03
2019-03-31T14:19:59.508Z,99966.84
2019-03-31T14:22:06.275Z,99969.53
2019-03-31T14:24:12.946Z,99974.37
2019-03-31T14:26:19.613Z,99972.70
2019-03-31T14:28:26.312Z,99968.52
2019-03-31T14:30:33.101Z,99985.31
2019-03-31T14:32:39.923Z,99988.52
2019-03-31T14:34:46.620Z,99995.31
2019-03-31T14:36:53.297Z,99986.80
2019-03-31T14:38:59.976Z,100000.67
2019-03-31T14:41:06.757Z,99990.20
2019-03-31T14:43:13.419Z,99999.61
2019-03-31T14:45:35.181Z,99992.70
2019-03-31T14:47:41.942Z,99992.27
2019-03-31T14:49:48.689Z,99996.34
2019-03-31T14:51:55.358Z,99992.34
2019-03-31T14:54:02.123Z,99999.46
2019-03-31T14:56:08.866Z,99990.64
2019-03-31T14:58:15.538Z,99989.62
2019-03-31T15:00:23.833Z,99991.80
2019-03-31T15:02:30.506Z,99988.24
2019-03-31T15:04:37.237Z,100003.72
2019-03-31T15:06:44.014Z,100001.14
2019-03-31T15:08:54.516Z,100012.86
2019-03-31T15:10:59.091Z,100010.27
2019-03-31T15:13:06.070Z,100017.02
2019-03-31T15:15:12.843Z,100007.73
2019-03-31T15:17:20.714Z,100016.17
2019-03-31T15:19:27.517Z,100014.88
2019-03-31T15:21:34.189Z,100021.52
2019-03-31T15:23:40.866Z,100019.87
2019-03-31T15:25:49.040Z,100039.10
2019-03-31T15:27:55.785Z,100033.41
2019-03-31T15:30:02.951Z,100032.23
2019-03-31T15:32:10.817Z,100039.82
2019-03-31T15:34:17.575Z,100038.17
2019-03-31T15:36:24.264Z,100039.63
2019-03-31T15:38:31.015Z,100043.30
2019-03-31T15:40:37.688Z,100046.00
2019-03-31T15:42:44.384Z,100046.91
2019-03-31T15:44:51.200Z,100046.92
2019-03-31T15:46:57.906Z,100049.66
2019-03-31T15:49:04.723Z,100059.02
2019-03-31T15:51:11.512Z,100058.14
2019-03-31T15:53:18.178Z,100069.27
2019-03-31T15:55:24.926Z,100067.14
2019-03-31T15:57:31.692Z,100069.80
2019-03-31T15:59:38.450Z,100072.87
2019-03-31T16:01:45.258Z,100079.09
2019-03-31T16:03:52.111Z,100078.66
2019-03-31T16:05:58.811Z,100085.73
2019-03-31T16:08:05.540Z,100089.30
2019-03-31T16:10:12.515Z,100087.09
2019-03-31T16:12:21.256Z,100092.39
2019-03-31T16:14:29.288Z,100095.95
2019-03-31T16:16:35.991Z,100104.80
2019-03-31T16:18:42.738Z,100102.58
2019-03-31T16:20:51.280Z,100105.67
2019-03-31T16:22:58.858Z,100107.88
2019-03-31T16:25:12.011Z,100102.58
2019-03-31T16:27:18.739Z,100114.52
2019-03-31T16:29:25.503Z,100116.31
2019-03-31T16:31:32.202Z,100117.60
2019-03-31T16:33:40.741Z,100119.84
2019-03-31T16:35:49.145Z,100122.06
2019-03-31T16:37:55.863Z,100123.81
2019-03-31T16:40:02.689Z,100132.63
2019-03-31T16:42:10.010Z,100140.56
2019-03-31T16:44:16.746Z,100137.45
2019-03-31T16:46:23.499Z,100148.44
2019-03-31T16:48:30.202Z,100149.73
2019-03-31T16:50:36.937Z,100147.45
2019-03-31T16:52:43.701Z,100152.28
2019-03-31T16:54:51.650Z,100149.58
2019-03-31T16:56:59.314Z,100157.02
2019-03-31T16:59:06.063Z,100160.09
2019-03-31T17:01:12.848Z,100159.15
2019-03-31T17:03:19.525Z,100161.77
2019-03-31T17:05:26.262Z,100168.78
2019-03-31T17:07:33.074Z,100169.61
2019-03-31T17:09:50.959Z,100172.22
2019-03-31T17:11:48.175Z,100180.49
2019-03-31T17:13:55.019Z,100178.26
2019-03-31T17:16:01.874Z,100179.05
2019-03-31T17:18:08.674Z,100180.77
2019-03-31T17:20:15.576Z,100183.78
2019-03-31T17:22:22.308Z,100193.48
2019-03-31T17:24:29.005Z,100192.06
2019-03-31T17:26:35.747Z,100191.58
2019-03-31T17:28:42.532Z,100191.97
2019-03-31T17:30:49.378Z,100202.07
2019-03-31T17:32:56.086Z,100202.02
2019-03-31T17:35:02.826Z,100211.25
2019-03-31T17:37:09.642Z,100205.40
2019-03-31T17:39:16.542Z,100213.30
2019-03-31T17:41:23.330Z,100216.72
2019-03-31T17:43:31.422Z,100223.25
2019-03-31T17:45:38.316Z,100234.59
2019-03-31T17:47:45.146Z,100239.36
2019-03-31T17:49:51.843Z,100244.52
2019-03-31T17:52:01.360Z,100248.41
2019-03-31T17:54:08.332Z,100254.45
2019-03-31T17:56:15.069Z,100259.19
2019-03-31T17:58:23.224Z,100252.46
2019-03-31T18:00:29.945Z,100266.93
2019-03-31T18:02:36.692Z,100270.84
2019-03-31T18:04:43.490Z,100268.55
2019-03-31T18:06:53.014Z,100271.64
2019-03-31T18:09:01.249Z,100278.22
2019-03-31T18:11:09.565Z,100280.40
2019-03-31T18:13:16.222Z,100286.53
2019-03-31T18:15:22.970Z,100285.62
2019-03-31T18:17:29.728Z,100290.52
2019-03-31T18:19:36.467Z,100294.05
2019-03-31T18:21:43.130Z,100300.21
2019-03-31T18:23:49.893Z,100304.59
2019-03-31T18:25:56.556Z,100308.09
2019-03-31T18:28:03.290Z,100309.39
2019-03-31T18:30:11.756Z,100309.30
2019-03-31T18:32:19.688Z,100310.19
2019-03-31T18:34:26.629Z,100315.41
2019-03-31T18:36:36.828Z,100315.38
2019-03-31T18:38:43.032Z,100315.81
2019-03-31T18:40:49.772Z,100321.06
2019-03-31T18:42:56.611Z,100322.35
2019-03-31T18:45:03.469Z,100323.15
2019-03-31T18:47:11.785Z,100332.75
2019-03-31T18:49:18.554Z,100339.72
2019-03-31T18:51:26.997Z,100337.45
2019-03-31T18:53:41.052Z,100338.22
2019-03-31T18:55:49.460Z,100340.79
2019-03-31T18:58:05.523Z,100344.19
2019-03-31T19:00:14.305Z,100352.42
2019-03-31T19:02:40.743Z,100353.19
2019-03-31T19:04:50.707Z,100356.16
2019-03-31T19:07:10.151Z,100360.47
2019-03-31T19:09:18.711Z,100359.15
2019-03-31T19:11:25.234Z,100359.97
2019-03-31T19:13:54.498Z,100360.30
2019-03-31T19:16:05.860Z,100364.61
2019-03-31T19:18:15.823Z,100374.58
2019-03-31T19:20:25.144Z,100377.11
2019-03-31T19:22:39.283Z,100377.53
2019-03-31T19:24:47.658Z,100381.48
2019-03-31T19:27:00.011Z,100390.17
2019-03-31T19:29:26.217Z,100398.89
2019-03-31T19:31:37.904Z,100397.03
2019-03-31T19:33:50.546Z,100397.39
2019-03-31T19:35:57.122Z,100399.80
2019-03-31T19:38:14.544Z,100403.23
2019-03-31T19:40:30.314Z,100401.34
2019-03-31T19:42:38.760Z,100397.66
2019-03-31T19:44:53.419Z,100405.83
2019-03-31T19:47:01.973Z,100405.70
2019-03-31T19:49:15.148Z,100408.61
2019-03-31T19:51:27.723Z,100413.78
2019-03-31T19:53:37.416Z,100421.13
2019-03-31T19:55:44.428Z,100428.38
2019-03-31T19:57:58.498Z,100429.87
2019-03-31T20:00:11.023Z,100430.25
2019-03-31T20:02:20.081Z,100437.11
2019-03-31T20:04:38.372Z,100449.20
2019-03-31T20:06:57.165Z,100453.85
2019-03-31T20:09:22.637Z,100471.17
2019-03-31T20:11:31.086Z,100468.37
2019-03-31T20:13:37.578Z,100473.77
2019-03-31T20:15:45.997Z,100475.20
2019-03-31T20:18:09.523Z,100474.45
2019-03-31T20:20:34.052Z,100493.76
2019-03-31T20:22:40.669Z,100487.35
2019-03-31T20:24:51.895Z,100494.86
2019-03-31T20:27:03.179Z,100495.91
2019-03-31T20:29:16.407Z,100510.87
2019-03-31T20:31:34.301Z,100506.67
2019-03-31T20:33:58.787Z,100524.34
2019-03-31T20:36:19.245Z,100523.23
2019-03-31T20:38:28.963Z,100527.36
2019-03-31T20:40:46.386Z,100533.64
2019-03-31T20:42:57.796Z,100539.09
2019-03-31T20:45:09.829Z,100540.65
2019-03-31T20:47:16.602Z,100544.03
2019-03-31T20:49:23.470Z,100549.41
2019-03-31T20:51:30.556Z,100552.68
2019-03-31T20:53:37.591Z,100556.30
2019-03-31T20:55:44.406Z,100552.50
2019-03-31T20:57:52.240Z,100560.11
2019-03-31T20:59:59.014Z,100562.08
2019-03-31T21:02:05.840Z,100565.89
2019-03-31T21:04:12.649Z,100566.99
2019-03-31T21:06:19.507Z,100564.13
2019-03-31T21:08:26.343Z,100574.11
2019-03-31T21:10:34.311Z,100579.29
2019-03-31T21:12:41.023Z,100583.58
2019-03-31T21:14:47.892Z,100587.38
2019-03-31T21:16:54.598Z,100589.46
2019-03-31T21:19:01.311Z,100582.52
2019-03-31T21:21:08.263Z,100595.34
2019-03-31T21:23:14.992Z,100596.39
2019-03-31T21:25:21.711Z,100602.66
2019-03-31T21:27:28.509Z,100604.54
2019-03-31T21:29:36.552Z,100608.66
2019-03-31T21:31:43.220Z,100608.81
2019-03-31T21:33:49.977Z,100616.03
2019-03-31T21:35:56.708Z,100619.27
2019-03-31T21:38:03.788Z,100620.73
2019-03-31T21:40:10.615Z,100623.25
2019-03-31T21:42:19.251Z,100627.39
2019-03-31T21:44:26.594Z,100629.80
2019-03-31T21:46:33.287Z,100634.04
2019-03-31T21:48:39.972Z,100629.98
2019-03-31T21:50:47.320Z,100634.25
2019-03-31T21:52:54.330Z,100634.59
2019-03-31T21:55:01.079Z,100632.32
2019-03-31T21:57:07.740Z,100632.45
2019-03-31T21:59:14.502Z,100637.04
2019-03-31T22:01:21.242Z,100637.73
2019-03-31T22:03:28.070Z,100645.84
2019-03-31T22:05:34.788Z,100641.72
2019-03-31T22:07:41.530Z,100646.02
2019-03-31T22:09:48.328Z,100645.88
2019-03-31T22:11:55.030Z,100650.14
2019-03-31T22:14:01.830Z,100651.23
2019-03-31T22:16:08.571Z,100651.95
2019-03-31T22:18:15.462Z,100652.09
2019-03-31T22:20:22.195Z,100649.27
2019-03-31T22:22:28.930Z,100649.56
2019-03-31T22:24:35.689Z,100656.84
2019-03-31T22:26:42.355Z,100657.60
2019-03-31T22:28:49.279Z,100652.12
2019-03-31T22:30:56.120Z,100657.20
2019-03-31T22:33:02.789Z,100656.43
2019-03-31T22:35:09.455Z,100657.06
2019-03-31T22:37:16.142Z,100655.95
2019-03-31T22:39:22.813Z,100659.20
2019-03-31T22:41:29.478Z,100666.33
2019-03-31T22:43:36.175Z,100665.20
2019-03-31T22:45:42.840Z,100665.02
2019-03-31T22:47:49.890Z,100662.66
2019-03-31T22:49:58.445Z,100666.84
2019-03-31T22:52:05.179Z,100667.95
2019-03-31T22:54:11.849Z,100669.93
2019-03-31T22:56:18.781Z,100674.52
2019-03-31T22:58:26.320Z,100676.08
2019-03-31T23:00:33.046Z,100678.08
2019-03-31T23:02:39.810Z,100684.04
2019-03-31T23:04:46.550Z,100684.63
2019-03-31T23:06:53.210Z,100679.12
2019-03-31T23:08:59.981Z,100682.41
2019-03-31T23:11:06.653Z,100676.55
2019-03-31T23:13:13.321Z,100677.23
2019-03-31T23:15:20.008Z,100682.70
2019-03-31T23:17:26.668Z,100682.62
2019-03-31T23:19:33.522Z,100686.05
2019-03-31T23:21:40.198Z,100681.58
2019-03-31T23:23:46.861Z,100684.95
2019-03-31T23:25:53.527Z,100687.08
2019-03-31T23:28:00.217Z,100691.64
2019-03-31T23:30:10.859Z,100694.42
2019-03-31T23:32:17.582Z,100693.48
2019-03-31T23:34:24.334Z,100694.13
2019-03-31T23:36:30.995Z,100698.78
2019-03-31T23:38:37.666Z,100693.33
2019-03-31T23:40:44.367Z,100700.20
2019-03-31T23:42:51.223Z,100702.65
2019-03-31T23:47:08.518Z,100710.80
2019-03-31T23:49:15.177Z,100707.33
2019-03-31T23:51:21.836Z,100708.88
2019-03-31T23:53:28.633Z,100707.41
2019-03-31T23:55:35.371Z,100717.66
2019-03-31T23:57:45.134Z,100715.37
2019-03-31T23:59:52.283Z,100717.77
